createdAt,value
2022-12-18T00:01:09.647Z,1029.5
2022-12-18T00:02:25.820Z,1029.5
2022-12-18T00:03:41.094Z,1029.5
2022-12-18T00:04:57.276Z,1029.6
2022-12-18T00:06:13.396Z,1029.7
2022-12-18T00:07:29.660Z,1029.6
2022-12-18T00:08:45.836Z,1029.6
2022-12-18T00:10:02.017Z,1029.6
2022-12-18T00:11:18.219Z,1029.6
2022-12-18T00:12:34.406Z,1029.6
2022-12-18T00:13:50.533Z,1029.6
2022-12-18T00:15:06.770Z,1029.6
2022-12-18T00:16:22.897Z,1029.7
2022-12-18T00:17:39.143Z,1029.7
2022-12-18T00:18:55.342Z,1029.6
2022-12-18T00:20:10.537Z,1029.6
2022-12-18T00:21:26.731Z,1029.6
2022-12-18T00:22:42.925Z,1029.7
2022-12-18T00:23:59.049Z,1029.6
2022-12-18T00:25:15.284Z,1029.7
2022-12-18T00:26:31.475Z,1029.6
2022-12-18T00:27:47.676Z,1029.6
2022-12-18T00:29:03.782Z,1029.6
2022-12-18T00:30:20.044Z,1029.5
2022-12-18T00:31:36.237Z,1029.6
2022-12-18T00:32:52.425Z,1029.5
2022-12-18T00:34:08.602Z,1029.6
2022-12-18T00:35:24.800Z,1029.5
2022-12-18T00:36:39.989Z,1029.6
2022-12-18T00:37:56.180Z,1029.6
2022-12-18T00:39:12.304Z,1029.6
2022-12-18T00:40:28.488Z,1029.6
2022-12-18T00:41:44.759Z,1029.6
2022-12-18T00:43:00.937Z,1029.5
2022-12-18T00:44:17.125Z,1029.6
2022-12-18T00:45:33.321Z,1029.5
2022-12-18T00:46:49.507Z,1029.5
2022-12-18T00:48:05.690Z,1029.5
2022-12-18T00:49:21.878Z,1029.6
2022-12-18T00:50:38.067Z,1029.5
2022-12-18T00:51:54.274Z,1029.5
2022-12-18T00:53:09.399Z,1029.6
2022-12-18T00:54:25.660Z,1029.5
2022-12-18T00:55:41.838Z,1029.5
2022-12-18T00:56:58.029Z,1029.4
2022-12-18T00:58:14.216Z,1029.4
2022-12-18T00:59:30.412Z,1029.4
2022-12-18T01:00:46.530Z,1029.4
2022-12-18T01:02:02.797Z,1029.4
2022-12-18T01:03:18.978Z,1029.4
2022-12-18T01:04:35.171Z,1029.4
2022-12-18T01:05:51.278Z,1029.4
2022-12-18T01:07:07.552Z,1029.4
2022-12-18T01:08:23.728Z,1029.4
2022-12-18T01:09:38.869Z,1029.5
2022-12-18T01:10:55.135Z,1029.5
2022-12-18T01:12:11.312Z,1029.5
2022-12-18T01:13:27.514Z,1029.5
2022-12-18T01:14:43.620Z,1029.5
2022-12-18T01:15:59.892Z,1029.5
2022-12-18T01:17:15.098Z,1029.5
2022-12-18T01:18:31.286Z,1029.5
2022-12-18T01:19:47.483Z,1029.6
2022-12-18T01:21:03.659Z,1029.6
2022-12-18T01:22:19.856Z,1029.6
2022-12-18T01:23:36.035Z,1029.7
2022-12-18T01:24:52.231Z,1029.6
2022-12-18T01:26:08.437Z,1029.7
2022-12-18T01:27:24.528Z,1029.7
2022-12-18T01:28:40.806Z,1029.7
2022-12-18T01:29:56.987Z,1029.7
2022-12-18T01:31:13.096Z,1029.8
2022-12-18T01:32:29.373Z,1029.8
2022-12-18T01:33:44.492Z,1029.7
2022-12-18T01:35:00.759Z,1029.7
2022-12-18T01:36:16.950Z,1029.7
2022-12-18T01:37:33.046Z,1029.8
2022-12-18T01:38:49.332Z,1029.8
2022-12-18T01:40:05.428Z,1029.7
2022-12-18T01:41:21.629Z,1029.8
2022-12-18T01:42:37.888Z,1029.8
2022-12-18T01:43:53.993Z,1029.7
2022-12-18T01:45:10.193Z,1029.8
2022-12-18T01:46:26.465Z,1029.7
2022-12-18T01:47:42.657Z,1029.7
2022-12-18T01:48:58.837Z,1029.8
2022-12-18T01:50:14.052Z,1029.8
2022-12-18T01:51:30.234Z,1029.7
2022-12-18T01:52:46.412Z,1029.8
2022-12-18T01:54:02.619Z,1029.8
2022-12-18T01:55:18.704Z,1029.8
2022-12-18T01:56:34.986Z,1029.7
2022-12-18T01:57:51.173Z,1029.8
2022-12-18T01:59:07.358Z,1029.8
2022-12-18T02:00:23.475Z,1029.8
2022-12-18T02:01:39.740Z,1029.8
2022-12-18T02:02:55.846Z,1029.9
2022-12-18T02:04:12.123Z,1029.9
2022-12-18T02:05:28.309Z,1029.8
2022-12-18T02:06:43.507Z,1029.8
2022-12-18T02:07:59.607Z,1029.8
2022-12-18T02:09:15.793Z,1029.8
2022-12-18T02:10:32.092Z,1029.9
2022-12-18T02:11:48.266Z,1029.9
2022-12-18T02:13:04.365Z,1029.9
2022-12-18T02:14:20.646Z,1029.9
2022-12-18T02:15:36.841Z,1029.9
2022-12-18T02:16:53.034Z,1029.8
2022-12-18T02:18:09.125Z,1029.9
2022-12-18T02:19:25.402Z,1030
2022-12-18T02:20:41.598Z,1030
2022-12-18T02:21:57.787Z,1030
2022-12-18T02:23:12.907Z,1030
2022-12-18T02:24:29.184Z,1029.9
2022-12-18T02:25:45.281Z,1030
2022-12-18T02:27:01.549Z,1030
2022-12-18T02:28:17.739Z,1029.9
2022-12-18T02:29:33.928Z,1029.9
2022-12-18T02:30:50.039Z,1029.9
2022-12-18T02:32:06.321Z,1029.9
2022-12-18T02:33:22.495Z,1030
2022-12-18T02:34:38.589Z,1029.9
2022-12-18T02:35:54.874Z,1030
2022-12-18T02:37:11.065Z,1030
2022-12-18T02:38:27.266Z,1030
2022-12-18T02:39:42.370Z,1030.1
2022-12-18T02:40:58.660Z,1030
2022-12-18T02:42:14.846Z,1030
2022-12-18T02:43:31.040Z,1030.1
2022-12-18T02:44:47.210Z,1030.1
2022-12-18T02:46:03.405Z,1030.1
2022-12-18T02:47:19.504Z,1030.2
2022-12-18T02:48:35.778Z,1030.2
2022-12-18T02:49:51.979Z,1030.2
2022-12-18T02:51:08.159Z,1030.2
2022-12-18T02:52:24.345Z,1030.3
2022-12-18T02:53:40.545Z,1030.3
2022-12-18T02:54:56.725Z,1030.3
2022-12-18T02:56:11.930Z,1030.3
2022-12-18T02:57:28.126Z,1030.2
2022-12-18T02:58:44.327Z,1030.3
2022-12-18T03:00:00.397Z,1030.2
2022-12-18T03:01:16.603Z,1030.2
2022-12-18T03:02:32.791Z,1030.2
2022-12-18T03:03:48.969Z,1030.2
2022-12-18T03:05:05.204Z,1030.2
2022-12-18T03:06:21.394Z,1030.2
2022-12-18T03:07:37.589Z,1030.1
2022-12-18T03:08:53.777Z,1030.1
2022-12-18T03:10:09.912Z,1030.2
2022-12-18T03:11:26.151Z,1030.2
2022-12-18T03:12:41.358Z,1030.2
2022-12-18T03:13:57.549Z,1030.2
2022-12-18T03:15:13.744Z,1030.2
2022-12-18T03:16:29.881Z,1030.2
2022-12-18T03:17:46.116Z,1030.2
2022-12-18T03:19:02.260Z,1030.2
2022-12-18T03:20:18.490Z,1030.2
2022-12-18T03:21:34.677Z,1030.2
2022-12-18T03:22:50.878Z,1030.2
2022-12-18T03:24:07.056Z,1030.3
2022-12-18T03:25:23.258Z,1030.3
2022-12-18T03:26:39.382Z,1030.2
2022-12-18T03:27:55.575Z,1030.2
2022-12-18T03:29:10.845Z,1030.2
2022-12-18T03:30:27.016Z,1030.2
2022-12-18T03:31:43.207Z,1030.2
2022-12-18T03:32:59.403Z,1030.3
2022-12-18T03:34:15.535Z,1030.2
2022-12-18T03:35:31.790Z,1030.2
2022-12-18T03:36:47.972Z,1030.3
2022-12-18T03:38:04.151Z,1030.2
2022-12-18T03:39:20.354Z,1030.3
2022-12-18T03:40:36.530Z,1030.3
2022-12-18T03:41:52.735Z,1030.2
2022-12-18T03:43:08.910Z,1030.3
2022-12-18T03:44:25.063Z,1030.3
2022-12-18T03:45:40.308Z,1030.2
2022-12-18T03:46:56.508Z,1030.2
2022-12-18T03:48:12.685Z,1030.2
2022-12-18T03:49:28.870Z,1030.2
2022-12-18T03:50:45.004Z,1030.2
2022-12-18T03:52:01.259Z,1030.2
2022-12-18T03:53:17.439Z,1030.3
2022-12-18T03:54:33.637Z,1030.3
2022-12-18T03:55:49.816Z,1030.3
2022-12-18T03:57:05.954Z,1030.3
2022-12-18T03:58:22.203Z,1030.3
2022-12-18T03:59:38.395Z,1030.3
2022-12-18T04:00:54.570Z,1030.3
2022-12-18T04:02:09.788Z,1030.4
2022-12-18T04:03:25.912Z,1030.3
2022-12-18T04:04:42.153Z,1030.3
2022-12-18T04:05:58.359Z,1030.3
2022-12-18T04:07:14.474Z,1030.3
2022-12-18T04:08:30.731Z,1030.3
2022-12-18T04:09:46.912Z,1030.3
2022-12-18T04:11:03.111Z,1030.2
2022-12-18T04:12:19.230Z,1030.2
2022-12-18T04:13:35.478Z,1030.2
2022-12-18T04:14:51.671Z,1030.2
2022-12-18T04:16:07.814Z,1030.2
2022-12-18T04:17:24.063Z,1030.2
2022-12-18T04:18:39.205Z,1030.3
2022-12-18T04:19:55.383Z,1030.3
2022-12-18T04:21:11.635Z,1030.2
2022-12-18T04:22:27.829Z,1030.2
2022-12-18T04:23:44.023Z,1030.3
2022-12-18T04:25:00.131Z,1030.3
2022-12-18T04:26:16.397Z,1030.4
2022-12-18T04:27:32.585Z,1030.4
2022-12-18T04:28:48.761Z,1030.4
2022-12-18T04:30:04.897Z,1030.5
2022-12-18T04:31:21.157Z,1030.4
2022-12-18T04:32:37.275Z,1030.4
2022-12-18T04:33:53.523Z,1030.5
2022-12-18T04:35:08.659Z,1030.4
2022-12-18T04:36:24.862Z,1030.4
2022-12-18T04:37:41.119Z,1030.5
2022-12-18T04:38:57.306Z,1030.4
2022-12-18T04:40:13.416Z,1030.4
2022-12-18T04:41:29.669Z,1030.4
2022-12-18T04:42:45.800Z,1030.4
2022-12-18T04:44:02.063Z,1030.5
2022-12-18T04:45:18.241Z,1030.5
2022-12-18T04:46:34.435Z,1030.5
2022-12-18T04:47:50.633Z,1030.5
2022-12-18T04:49:06.821Z,1030.5
2022-12-18T04:50:22.938Z,1030.5
2022-12-18T04:51:38.208Z,1030.5
2022-12-18T04:52:54.388Z,1030.5
2022-12-18T04:54:10.582Z,1030.5
2022-12-18T04:55:26.774Z,1030.5
2022-12-18T04:56:42.954Z,1030.5
2022-12-18T04:57:59.088Z,1030.5
2022-12-18T04:59:15.332Z,1030.5
2022-12-18T05:00:31.530Z,1030.5
2022-12-18T05:01:47.720Z,1030.6
2022-12-18T05:03:03.903Z,1030.6
2022-12-18T05:04:20.091Z,1030.6
2022-12-18T05:05:36.214Z,1030.6
2022-12-18T05:06:52.404Z,1030.6
2022-12-18T05:08:07.617Z,1030.5
2022-12-18T05:09:23.880Z,1030.5
2022-12-18T05:10:40.062Z,1030.5
2022-12-18T05:11:56.254Z,1030.5
2022-12-18T05:13:12.371Z,1030.5
2022-12-18T05:14:28.628Z,1030.6
2022-12-18T05:15:44.815Z,1030.5
2022-12-18T05:17:00.996Z,1030.6
2022-12-18T05:18:17.197Z,1030.6
2022-12-18T05:19:33.380Z,1030.6
2022-12-18T05:20:49.573Z,1030.6
2022-12-18T05:22:05.690Z,1030.6
2022-12-18T05:23:21.957Z,1030.6
2022-12-18T05:24:37.154Z,1030.7
2022-12-18T05:25:53.337Z,1030.7
2022-12-18T05:27:09.540Z,1030.7
2022-12-18T05:28:25.721Z,1030.7
2022-12-18T05:29:41.913Z,1030.7
2022-12-18T05:30:58.107Z,1030.7
2022-12-18T05:32:13.231Z,1030.9
2022-12-18T05:33:29.509Z,1030.9
2022-12-18T05:34:45.693Z,1030.9
2022-12-18T05:36:01.886Z,1030.9
2022-12-18T05:37:18.063Z,1030.9
2022-12-18T05:38:34.255Z,1030.9
2022-12-18T05:39:50.455Z,1030.8
2022-12-18T05:41:06.562Z,1030.9
2022-12-18T05:42:22.832Z,1030.9
2022-12-18T05:43:39.007Z,1030.9
2022-12-18T05:44:55.134Z,1030.9
2022-12-18T05:46:11.390Z,1030.9
2022-12-18T05:47:27.582Z,1030.9
2022-12-18T05:48:42.782Z,1031
2022-12-18T05:49:58.970Z,1031
2022-12-18T05:51:15.160Z,1030.9
2022-12-18T05:52:31.282Z,1031.1
2022-12-18T05:53:47.460Z,1031.1
2022-12-18T05:55:03.725Z,1031.1
2022-12-18T05:56:19.931Z,1031
2022-12-18T05:57:36.106Z,1031
2022-12-18T05:58:52.303Z,1031
2022-12-18T06:00:08.496Z,1031.1
2022-12-18T06:01:24.671Z,1031
2022-12-18T06:02:40.876Z,1031
2022-12-18T06:03:56.965Z,1031
2022-12-18T06:05:12.253Z,1031.1
2022-12-18T06:06:28.368Z,1031.1
2022-12-18T06:07:44.641Z,1031.1
2022-12-18T06:09:00.836Z,1031.1
2022-12-18T06:10:16.933Z,1031.1
2022-12-18T06:11:33.132Z,1031.1
2022-12-18T06:12:49.389Z,1031.1
2022-12-18T06:14:05.593Z,1031.1
2022-12-18T06:15:21.777Z,1031.2
2022-12-18T06:16:37.958Z,1031.2
2022-12-18T06:17:54.076Z,1031.2
2022-12-18T06:19:10.344Z,1031.2
2022-12-18T06:20:26.532Z,1031.2
2022-12-18T06:21:41.739Z,1031.2
2022-12-18T06:22:57.832Z,1031.3
2022-12-18T06:24:14.023Z,1031.3
2022-12-18T06:25:30.312Z,1031.3
2022-12-18T06:26:46.492Z,1031.3
2022-12-18T06:28:02.687Z,1031.3
2022-12-18T06:29:18.775Z,1031.3
2022-12-18T06:30:34.973Z,1031.4
2022-12-18T06:31:51.259Z,1031.3
2022-12-18T06:33:07.340Z,1031.3
2022-12-18T06:34:23.624Z,1031.3
2022-12-18T06:35:39.727Z,1031.3
2022-12-18T06:36:56.007Z,1031.4
2022-12-18T06:38:11.206Z,1031.4
2022-12-18T06:39:27.311Z,1031.4
2022-12-18T06:40:43.589Z,1031.5
2022-12-18T06:41:59.780Z,1031.4
2022-12-18T06:43:15.883Z,1031.5
2022-12-18T06:44:32.072Z,1031.4
2022-12-18T06:45:48.348Z,1031.5
2022-12-18T06:47:04.529Z,1031.5
2022-12-18T06:48:20.715Z,1031.5
2022-12-18T06:49:36.924Z,1031.6
2022-12-18T06:50:53.108Z,1031.6
2022-12-18T06:52:09.191Z,1031.6
2022-12-18T06:53:25.484Z,1031.7
2022-12-18T06:54:40.682Z,1031.6
2022-12-18T06:55:56.877Z,1031.7
2022-12-18T06:57:13.069Z,1031.7
2022-12-18T06:58:29.159Z,1031.7
2022-12-18T06:59:45.438Z,1031.7
2022-12-18T07:01:01.637Z,1031.7
2022-12-18T07:02:17.827Z,1031.7
2022-12-18T07:03:33.920Z,1031.8
2022-12-18T07:04:50.104Z,1031.8
2022-12-18T07:06:06.395Z,1031.9
2022-12-18T07:07:22.570Z,1031.8
2022-12-18T07:08:38.776Z,1031.8
2022-12-18T07:09:54.963Z,1031.7
2022-12-18T07:11:10.165Z,1031.8
2022-12-18T07:12:26.258Z,1031.7
2022-12-18T07:13:42.442Z,1031.6
2022-12-18T07:14:58.736Z,1031.7
2022-12-18T07:16:14.909Z,1031.6
2022-12-18T07:17:31.101Z,1031.7
2022-12-18T07:18:47.305Z,1031.6
2022-12-18T07:20:03.391Z,1031.6
2022-12-18T07:21:19.665Z,1031.7
2022-12-18T07:22:35.865Z,1031.7
2022-12-18T07:23:52.051Z,1031.7
2022-12-18T07:25:08.235Z,1031.7
2022-12-18T07:26:24.329Z,1031.7
2022-12-18T07:27:39.529Z,1031.8
2022-12-18T07:28:55.832Z,1031.7
2022-12-18T07:30:11.920Z,1031.8
2022-12-18T07:31:28.210Z,1031.7
2022-12-18T07:32:44.389Z,1031.7
2022-12-18T07:34:00.574Z,1031.8
2022-12-18T07:35:16.676Z,1031.7
2022-12-18T07:36:32.978Z,1031.7
2022-12-18T07:37:49.145Z,1031.8
2022-12-18T07:39:05.242Z,1031.7
2022-12-18T07:40:21.527Z,1031.7
2022-12-18T07:41:37.722Z,1031.7
2022-12-18T07:42:53.896Z,1031.7
2022-12-18T07:44:09.105Z,1031.7
2022-12-18T07:45:25.306Z,1031.7
2022-12-18T07:46:41.496Z,1031.7
2022-12-18T07:47:57.668Z,1031.8
2022-12-18T07:49:13.864Z,1031.7
2022-12-18T07:50:30.056Z,1031.8
2022-12-18T07:51:46.248Z,1031.8
2022-12-18T07:53:02.441Z,1031.9
2022-12-18T07:54:18.616Z,1031.8
2022-12-18T07:55:34.812Z,1031.8
2022-12-18T07:56:50.991Z,1031.8
2022-12-18T07:58:07.079Z,1031.9
2022-12-18T07:59:23.277Z,1031.8
2022-12-18T08:00:38.588Z,1031.8
2022-12-18T08:01:54.765Z,1031.7
2022-12-18T08:03:10.956Z,1031.7
2022-12-18T08:04:27.144Z,1031.7
2022-12-18T08:05:43.334Z,1031.7
2022-12-18T08:06:59.523Z,1031.8
2022-12-18T08:08:15.717Z,1031.8
2022-12-18T08:09:31.899Z,1031.8
2022-12-18T08:10:48.100Z,1031.8
2022-12-18T08:12:04.296Z,1031.8
2022-12-18T08:13:20.368Z,1031.8
2022-12-18T08:14:36.662Z,1031.8
2022-12-18T08:15:52.744Z,1031.8
2022-12-18T08:17:08.065Z,1031.9
2022-12-18T08:18:24.251Z,1031.8
2022-12-18T08:19:40.443Z,1031.8
2022-12-18T08:20:56.622Z,1031.8
2022-12-18T08:22:12.811Z,1031.8
2022-12-18T08:23:28.903Z,1031.8
2022-12-18T08:24:45.196Z,1031.7
2022-12-18T08:26:01.386Z,1031.8
2022-12-18T08:27:17.576Z,1031.8
2022-12-18T08:28:33.644Z,1031.8
2022-12-18T08:29:49.942Z,1031.9
2022-12-18T08:31:06.021Z,1031.9
2022-12-18T08:32:22.322Z,1031.9
2022-12-18T08:33:37.531Z,1031.9
2022-12-18T08:34:53.730Z,1031.9
2022-12-18T08:36:09.908Z,1031.9
2022-12-18T08:37:26.096Z,1031.9
2022-12-18T08:38:42.181Z,1031.8
2022-12-18T08:39:58.480Z,1031.9
2022-12-18T08:41:14.668Z,1031.9
2022-12-18T08:42:30.743Z,1031.9
2022-12-18T08:43:47.039Z,1032
2022-12-18T08:45:03.242Z,1032
2022-12-18T08:46:19.316Z,1032
2022-12-18T08:47:35.619Z,1032
2022-12-18T08:48:51.796Z,1032
2022-12-18T08:50:07.015Z,1032
2022-12-18T08:51:23.209Z,1032
2022-12-18T08:52:39.275Z,1032
2022-12-18T08:53:55.570Z,1032
2022-12-18T08:55:11.639Z,1032
2022-12-18T08:56:27.946Z,1032
2022-12-18T08:57:44.139Z,1032
2022-12-18T08:59:00.213Z,1032.1
2022-12-18T09:00:16.526Z,1032.1
2022-12-18T09:01:32.583Z,1032.2
2022-12-18T09:02:48.900Z,1032.1
2022-12-18T09:04:05.087Z,1032.2
2022-12-18T09:05:21.279Z,1032.2
2022-12-18T09:06:36.493Z,1032.2
2022-12-18T09:07:52.681Z,1032.2
2022-12-18T09:09:08.742Z,1032.2
2022-12-18T09:10:24.923Z,1032.3
2022-12-18T09:11:41.244Z,1032.2
2022-12-18T09:12:57.440Z,1032.3
2022-12-18T09:14:13.496Z,1032.3
2022-12-18T09:15:29.810Z,1032.3
2022-12-18T09:16:45.994Z,1032.3
2022-12-18T09:18:02.197Z,1032.3
2022-12-18T09:19:18.372Z,1032.3
2022-12-18T09:20:34.570Z,1032.3
2022-12-18T09:21:50.750Z,1032.3
2022-12-18T09:23:05.954Z,1032.3
2022-12-18T09:24:22.143Z,1032.3
2022-12-18T09:25:38.335Z,1032.3
2022-12-18T09:26:54.412Z,1032.4
2022-12-18T09:28:10.713Z,1032.5
2022-12-18T09:29:26.900Z,1032.4
2022-12-18T09:30:43.099Z,1032.4
2022-12-18T09:31:59.154Z,1032.5
2022-12-18T09:33:15.467Z,1032.4
2022-12-18T09:34:31.673Z,1032.5
2022-12-18T09:35:47.842Z,1032.4
2022-12-18T09:37:04.048Z,1032.4
2022-12-18T09:38:20.231Z,1032.4
2022-12-18T09:39:35.443Z,1032.4
2022-12-18T09:40:51.621Z,1032.4
2022-12-18T09:42:07.821Z,1032.4
2022-12-18T09:43:24.008Z,1032.3
2022-12-18T09:44:40.055Z,1032.3
2022-12-18T09:45:56.382Z,1032.3
2022-12-18T09:47:11.593Z,1032.2
2022-12-18T09:48:27.788Z,1032.1
2022-12-18T09:49:43.966Z,1032.2
2022-12-18T09:51:00.157Z,1032.1
2022-12-18T09:52:16.340Z,1032.1
2022-12-18T09:53:32.539Z,1032.1
2022-12-18T09:54:48.584Z,1032.1
2022-12-18T09:56:04.908Z,1032.1
2022-12-18T09:57:21.104Z,1032
2022-12-18T09:58:37.171Z,1032
2022-12-18T09:59:53.481Z,1032
2022-12-18T10:01:09.667Z,1031.9
2022-12-18T10:02:25.717Z,1032
2022-12-18T10:03:41.070Z,1031.9
2022-12-18T10:04:57.260Z,1031.8
2022-12-18T10:06:13.440Z,1031.8
2022-12-18T10:07:29.635Z,1031.8
2022-12-18T10:08:45.813Z,1031.8
2022-12-18T10:10:01.867Z,1031.8
2022-12-18T10:11:18.065Z,1031.7
2022-12-18T10:12:34.253Z,1031.7
2022-12-18T10:13:50.558Z,1031.7
2022-12-18T10:15:06.618Z,1031.7
2022-12-18T10:16:22.953Z,1031.7
2022-12-18T10:17:39.132Z,1031.7
2022-12-18T10:18:55.327Z,1031.7
2022-12-18T10:20:10.523Z,1031.7
2022-12-18T10:21:26.699Z,1031.7
2022-12-18T10:22:42.900Z,1031.7
2022-12-18T10:23:58.937Z,1031.7
2022-12-18T10:25:15.143Z,1031.7
2022-12-18T10:26:31.455Z,1031.7
2022-12-18T10:27:47.655Z,1031.7
2022-12-18T10:29:03.826Z,1031.7
2022-12-18T10:30:20.022Z,1031.7
2022-12-18T10:31:36.206Z,1031.7
2022-12-18T10:32:52.257Z,1031.7
2022-12-18T10:34:08.594Z,1031.7
2022-12-18T10:35:24.767Z,1031.6
2022-12-18T10:36:39.979Z,1031.6
2022-12-18T10:37:56.170Z,1031.6
2022-12-18T10:39:12.350Z,1031.5
2022-12-18T10:40:28.400Z,1031.6
2022-12-18T10:41:44.715Z,1031.6
2022-12-18T10:43:00.918Z,1031.6
2022-12-18T10:44:17.109Z,1031.6
2022-12-18T10:45:33.296Z,1031.5
2022-12-18T10:46:49.326Z,1031.5
2022-12-18T10:48:05.661Z,1031.4
2022-12-18T10:49:21.849Z,1031.5
2022-12-18T10:50:38.029Z,1031.4
2022-12-18T10:51:54.222Z,1031.4
2022-12-18T10:53:09.418Z,1031.4
2022-12-18T10:54:25.610Z,1031.4
2022-12-18T10:55:41.797Z,1031.4
2022-12-18T10:56:57.846Z,1031.4
2022-12-18T10:58:14.039Z,1031.4
2022-12-18T10:59:30.373Z,1031.4
2022-12-18T11:00:46.551Z,1031.4
2022-12-18T11:02:02.748Z,1031.3
2022-12-18T11:03:18.933Z,1031.2
2022-12-18T11:04:35.121Z,1031.2
2022-12-18T11:05:51.306Z,1031.3
2022-12-18T11:07:07.496Z,1031.2
2022-12-18T11:08:23.674Z,1031.2
2022-12-18T11:09:38.870Z,1031.2
2022-12-18T11:10:54.917Z,1031.2
2022-12-18T11:12:11.246Z,1031.2
2022-12-18T11:13:27.448Z,1031.3
2022-12-18T11:14:43.636Z,1031.2
2022-12-18T11:15:59.825Z,1031.3
2022-12-18T11:17:16.013Z,1031.2
2022-12-18T11:18:32.182Z,1031.2
2022-12-18T11:19:48.386Z,1031.2
2022-12-18T11:21:04.556Z,1031.3
2022-12-18T11:22:20.607Z,1031.2
2022-12-18T11:23:36.948Z,1031.3
2022-12-18T11:24:53.123Z,1031.2
2022-12-18T11:26:08.180Z,1031.1
2022-12-18T11:28:40.709Z,1031.2
2022-12-18T11:29:56.897Z,1031.2
2022-12-18T11:31:13.086Z,1031.2
2022-12-18T11:32:29.276Z,1031.2
2022-12-18T11:33:45.412Z,1031.2
2022-12-18T11:35:01.604Z,1031.2
2022-12-18T11:36:17.821Z,1031.3
2022-12-18T11:37:34.023Z,1031.2
2022-12-18T11:38:50.215Z,1031.3
2022-12-18T11:40:06.349Z,1031.3
2022-12-18T11:41:22.527Z,1031.3
2022-12-18T11:42:37.783Z,1031.3
2022-12-18T11:43:53.979Z,1031.3
2022-12-18T11:45:10.154Z,1031.3
2022-12-18T11:46:26.349Z,1031.3
2022-12-18T11:47:42.531Z,1031.2
2022-12-18T11:48:58.677Z,1031.2
2022-12-18T11:50:14.911Z,1031.2
2022-12-18T11:51:31.087Z,1031.2
2022-12-18T11:52:47.277Z,1031.2
2022-12-18T11:54:03.464Z,1031.2
2022-12-18T11:55:19.660Z,1031.3
2022-12-18T11:56:35.849Z,1031.3
2022-12-18T11:57:52.036Z,1031.3
2022-12-18T11:59:07.181Z,1031.4
2022-12-18T12:00:23.414Z,1031.4
2022-12-18T12:01:39.620Z,1031.4
2022-12-18T12:02:55.802Z,1031.4
2022-12-18T12:04:11.982Z,1031.4
2022-12-18T12:05:28.174Z,1031.4
2022-12-18T12:06:44.315Z,1031.4
2022-12-18T12:08:00.555Z,1031.4
2022-12-18T12:09:16.738Z,1031.5
2022-12-18T12:10:32.916Z,1031.5
2022-12-18T12:11:49.110Z,1031.5
2022-12-18T12:13:05.293Z,1031.5
2022-12-18T12:14:21.479Z,1031.5
2022-12-18T12:15:36.690Z,1031.6
2022-12-18T12:16:52.812Z,1031.6
2022-12-18T12:18:08.998Z,1031.6
2022-12-18T12:19:25.190Z,1031.6
2022-12-18T12:20:41.441Z,1031.6
2022-12-18T12:21:57.620Z,1031.5
2022-12-18T12:23:13.819Z,1031.6
2022-12-18T12:24:30.005Z,1031.6
2022-12-18T12:25:46.193Z,1031.6
2022-12-18T12:27:02.380Z,1031.5
2022-12-18T12:28:18.570Z,1031.5
2022-12-18T12:29:34.757Z,1031.6
2022-12-18T12:30:50.872Z,1031.6
2022-12-18T12:32:06.144Z,1031.6
2022-12-18T12:33:22.331Z,1031.6
2022-12-18T12:34:38.521Z,1031.6
2022-12-18T12:35:54.704Z,1031.6
2022-12-18T12:37:10.890Z,1031.7
2022-12-18T12:38:27.070Z,1031.7
2022-12-18T12:39:43.270Z,1031.7
2022-12-18T12:40:59.449Z,1031.7
2022-12-18T12:42:15.641Z,1031.8
2022-12-18T12:43:31.765Z,1031.7
2022-12-18T12:44:48.024Z,1031.8
2022-12-18T12:46:04.214Z,1031.8
2022-12-18T12:47:20.393Z,1031.8
2022-12-18T12:48:35.531Z,1031.7
2022-12-18T12:49:51.726Z,1031.7
2022-12-18T12:51:07.980Z,1031.7
2022-12-18T12:52:24.165Z,1031.7
2022-12-18T12:53:40.353Z,1031.7
2022-12-18T12:54:56.539Z,1031.8
2022-12-18T12:56:12.714Z,1031.7
2022-12-18T12:57:28.921Z,1031.7
2022-12-18T12:58:45.086Z,1031.7
2022-12-18T13:00:01.276Z,1031.5
2022-12-18T13:01:17.470Z,1031.5
2022-12-18T13:02:33.653Z,1031.5
2022-12-18T13:03:49.854Z,1031.4
2022-12-18T13:05:04.982Z,1031.2
2022-12-18T13:06:21.240Z,1031.3
2022-12-18T13:07:37.426Z,1031.2
2022-12-18T13:08:53.535Z,1031.2
2022-12-18T13:10:09.799Z,1031.2
2022-12-18T13:11:25.975Z,1031.2
2022-12-18T13:12:42.112Z,1031.2
2022-12-18T13:13:58.352Z,1031.1
2022-12-18T13:15:14.538Z,1031.1
2022-12-18T13:16:30.727Z,1031.1
2022-12-18T13:17:46.927Z,1031.2
2022-12-18T13:19:03.110Z,1031.2
2022-12-18T13:20:19.234Z,1031.3
2022-12-18T13:21:34.429Z,1031.3
2022-12-18T13:22:50.697Z,1031.3
2022-12-18T13:24:06.868Z,1031.3
2022-12-18T13:25:23.064Z,1031.4
2022-12-18T13:26:39.244Z,1031.3
2022-12-18T13:27:55.367Z,1031.4
2022-12-18T13:29:11.630Z,1031.4
2022-12-18T13:30:27.810Z,1031.4
2022-12-18T13:31:43.990Z,1031.4
2022-12-18T13:33:00.195Z,1031.3
2022-12-18T13:34:16.310Z,1031.3
2022-12-18T13:35:32.482Z,1031.3
2022-12-18T13:36:48.752Z,1031.2
2022-12-18T13:38:03.951Z,1031.3
2022-12-18T13:39:20.141Z,1031.3
2022-12-18T13:41:52.515Z,1031.2
2022-12-18T13:43:08.707Z,1031.3
2022-12-18T13:44:24.889Z,1031.3
2022-12-18T13:45:41.076Z,1031.3
2022-12-18T13:46:57.186Z,1031.2
2022-12-18T13:48:13.447Z,1031.2
2022-12-18T13:49:29.637Z,1031.2
2022-12-18T13:50:45.763Z,1031.2
2022-12-18T13:52:02.020Z,1031.2
2022-12-18T13:53:18.206Z,1031.1
2022-12-18T13:54:33.327Z,1031.1
2022-12-18T13:55:49.599Z,1031
2022-12-18T13:57:05.779Z,1031
2022-12-18T13:58:21.889Z,1031
2022-12-18T13:59:38.075Z,1031
2022-12-18T14:00:54.335Z,1031.1
2022-12-18T14:02:09.551Z,1031.2
2022-12-18T14:03:25.741Z,1031.2
2022-12-18T14:04:41.936Z,1031.1
2022-12-18T14:05:58.032Z,1031
2022-12-18T14:07:14.300Z,1030.9
2022-12-18T14:08:30.420Z,1030.9
2022-12-18T14:09:46.676Z,1030.8
2022-12-18T14:11:02.782Z,1030.9
2022-12-18T14:12:19.060Z,1030.8
2022-12-18T14:13:35.157Z,1030.9
2022-12-18T14:14:51.436Z,1030.9
2022-12-18T14:16:07.620Z,1030.9
2022-12-18T14:17:23.794Z,1030.8
2022-12-18T14:18:39.003Z,1030.9
2022-12-18T14:19:55.199Z,1030.9
2022-12-18T14:21:11.305Z,1030.8
2022-12-18T14:22:27.573Z,1030.9
2022-12-18T14:23:43.763Z,1030.9
2022-12-18T14:24:59.866Z,1030.9
2022-12-18T14:26:16.138Z,1030.9
2022-12-18T14:27:32.309Z,1030.9
2022-12-18T14:28:48.427Z,1030.8
2022-12-18T14:30:04.702Z,1030.8
2022-12-18T14:31:20.888Z,1030.8
2022-12-18T14:32:37.069Z,1030.8
2022-12-18T14:33:53.165Z,1030.7
2022-12-18T14:35:08.461Z,1030.7
2022-12-18T14:36:24.569Z,1030.6
2022-12-18T14:37:40.828Z,1030.6
2022-12-18T14:38:57.026Z,1030.5
2022-12-18T14:40:13.210Z,1030.5
2022-12-18T14:41:29.388Z,1030.5
2022-12-18T14:42:45.583Z,1030.5
2022-12-18T14:44:01.679Z,1030.5
2022-12-18T14:45:17.952Z,1030.4
2022-12-18T14:46:34.139Z,1030.4
2022-12-18T14:47:50.332Z,1030.4
2022-12-18T14:49:06.435Z,1030.5
2022-12-18T14:50:22.716Z,1030.5
2022-12-18T14:51:37.825Z,1030.4
2022-12-18T14:52:54.094Z,1030.4
2022-12-18T14:54:10.287Z,1030.3
2022-12-18T14:55:26.479Z,1030.3
2022-12-18T14:56:42.667Z,1030.3
2022-12-18T14:57:58.839Z,1030.2
2022-12-18T14:59:15.033Z,1030.2
2022-12-18T15:00:31.232Z,1030.2
2022-12-18T15:01:47.414Z,1030.3
2022-12-18T15:03:03.593Z,1030.3
2022-12-18T15:04:19.780Z,1030.3
2022-12-18T15:05:35.966Z,1030.3
2022-12-18T15:06:52.061Z,1030.4
2022-12-18T15:08:07.358Z,1030.5
2022-12-18T15:09:23.462Z,1030.4
2022-12-18T15:10:39.745Z,1030.5
2022-12-18T15:11:55.929Z,1030.6
2022-12-18T15:13:12.110Z,1030.6
2022-12-18T15:14:28.293Z,1030.6
2022-12-18T15:15:44.496Z,1030.6
2022-12-18T15:17:00.682Z,1030.7
2022-12-18T15:18:16.872Z,1030.7
2022-12-18T15:19:32.967Z,1030.7
2022-12-18T15:20:49.228Z,1030.7
2022-12-18T15:22:05.423Z,1030.7
2022-12-18T15:23:21.622Z,1030.7
2022-12-18T15:24:36.807Z,1030.7
2022-12-18T15:25:52.917Z,1030.7
2022-12-18T15:27:09.086Z,1030.7
2022-12-18T15:28:25.385Z,1030.7
2022-12-18T15:29:41.569Z,1030.7
2022-12-18T15:30:57.750Z,1030.7
2022-12-18T15:32:13.948Z,1030.6
2022-12-18T15:33:30.129Z,1030.6
2022-12-18T15:34:46.215Z,1030.7
2022-12-18T15:36:02.403Z,1030.6
2022-12-18T15:37:18.596Z,1030.6
2022-12-18T15:38:34.873Z,1030.7
2022-12-18T15:39:51.060Z,1030.7
2022-12-18T15:41:06.173Z,1030.7
2022-12-18T15:42:22.449Z,1030.8
2022-12-18T15:43:38.645Z,1030.7
2022-12-18T15:44:54.840Z,1030.8
2022-12-18T15:46:11.022Z,1030.8
2022-12-18T15:47:27.215Z,1030.8
2022-12-18T15:48:43.395Z,1030.8
2022-12-18T15:49:59.580Z,1030.8
2022-12-18T15:51:15.767Z,1030.8
2022-12-18T15:52:31.855Z,1030.8
2022-12-18T15:53:48.051Z,1030.9
2022-12-18T15:55:04.328Z,1030.8
2022-12-18T15:56:20.529Z,1030.9